createdAt,value
2023-02-24T00:00:45.868Z,11.27
2023-02-24T00:01:44.304Z,11.27
2023-02-24T00:02:44.376Z,11.30
2023-02-24T00:03:44.303Z,11.28
2023-02-24T00:04:44.268Z,11.28
2023-02-24T00:05:44.353Z,11.30
2023-02-24T00:06:44.241Z,11.28
2023-02-24T00:07:44.266Z,11.28
2023-02-24T00:08:44.219Z,11.27
2023-02-24T00:09:44.224Z,11.27
2023-02-24T00:10:44.222Z,11.26
2023-02-24T00:11:44.231Z,11.24
2023-02-24T00:12:44.198Z,11.24
2023-02-24T00:13:44.163Z,11.24
2023-02-24T00:14:44.162Z,11.21
2023-02-24T00:15:44.140Z,11.23
2023-02-24T00:16:44.236Z,11.23
2023-02-24T00:17:44.120Z,11.20
2023-02-24T00:18:44.128Z,11.20
2023-02-24T00:19:44.132Z,11.20
2023-02-24T00:20:44.100Z,11.20
2023-02-24T00:21:44.090Z,11.19
2023-02-24T00:22:44.069Z,11.20
2023-02-24T00:23:44.080Z,11.20
2023-02-24T00:24:44.041Z,11.20
2023-02-24T00:25:44.040Z,11.20
2023-02-24T00:26:44.045Z,11.20
2023-02-24T00:27:44.010Z,11.19
2023-02-24T00:28:44.013Z,11.13
2023-02-24T00:29:44.003Z,11.12
2023-02-24T00:30:44.040Z,11.11
2023-02-24T00:31:44.264Z,11.09
2023-02-24T00:32:44.068Z,11.06
2023-02-24T00:33:43.985Z,11.06
2023-02-24T00:34:43.965Z,11.05
2023-02-24T00:35:43.938Z,11.05
2023-02-24T00:36:43.928Z,11.03
2023-02-24T00:37:43.950Z,11.03
2023-02-24T00:38:43.921Z,11.03
2023-02-24T00:39:43.902Z,11.03
2023-02-24T00:40:43.893Z,10.98
2023-02-24T00:41:43.882Z,10.95
2023-02-24T00:42:43.954Z,10.94
2023-02-24T00:43:43.864Z,10.93
2023-02-24T00:44:43.860Z,10.95
2023-02-24T00:45:43.836Z,10.95
2023-02-24T00:46:43.842Z,10.93
2023-02-24T00:47:43.826Z,10.94
2023-02-24T00:48:43.836Z,10.94
2023-02-24T00:49:43.827Z,10.93
2023-02-24T00:50:43.776Z,10.94
2023-02-24T00:51:43.780Z,10.91
2023-02-24T00:52:43.778Z,10.90
2023-02-24T00:53:43.769Z,10.90
2023-02-24T00:54:43.751Z,10.88
2023-02-24T00:55:43.756Z,10.88
2023-02-24T00:56:43.729Z,10.88
2023-02-24T00:57:43.725Z,10.87
2023-02-24T00:58:43.709Z,10.87
2023-02-24T00:59:43.686Z,10.88
2023-02-24T01:00:43.698Z,10.87
2023-02-24T01:01:43.704Z,10.87
2023-02-24T01:02:43.669Z,10.88
2023-02-24T01:03:43.688Z,10.88
2023-02-24T01:04:43.631Z,10.90
2023-02-24T01:05:43.643Z,10.90
2023-02-24T01:06:43.607Z,10.90
2023-02-24T01:07:43.652Z,10.88
2023-02-24T01:08:43.580Z,10.87
2023-02-24T01:09:43.579Z,10.86
2023-02-24T01:10:43.570Z,10.87
2023-02-24T01:11:43.579Z,10.86
2023-02-24T01:12:43.561Z,10.84
2023-02-24T01:13:43.530Z,10.83
2023-02-24T01:14:43.539Z,10.78
2023-02-24T01:15:43.550Z,10.76
2023-02-24T01:16:43.510Z,10.78
2023-02-24T01:17:43.541Z,10.80
2023-02-24T01:18:43.490Z,10.78
2023-02-24T01:19:43.480Z,10.78
2023-02-24T01:20:43.449Z,10.76
2023-02-24T01:21:43.452Z,10.78
2023-02-24T01:22:43.507Z,10.76
2023-02-24T01:23:43.431Z,10.78
2023-02-24T01:24:43.418Z,10.78
2023-02-24T01:25:44.124Z,10.76
2023-02-24T01:26:43.394Z,10.76
2023-02-24T01:27:43.422Z,10.76
2023-02-24T01:28:43.397Z,10.75
2023-02-24T01:29:43.435Z,10.73
2023-02-24T01:30:43.381Z,10.75
2023-02-24T01:31:43.530Z,10.76
2023-02-24T01:32:43.557Z,10.78
2023-02-24T01:33:43.323Z,10.76
2023-02-24T01:34:43.323Z,10.76
2023-02-24T01:35:43.307Z,10.76
2023-02-24T01:36:43.330Z,10.76
2023-02-24T01:37:43.374Z,10.78
2023-02-24T01:38:43.263Z,10.76
2023-02-24T01:39:43.267Z,10.73
2023-02-24T01:40:43.255Z,10.75
2023-02-24T01:41:43.246Z,10.73
2023-02-24T01:42:43.236Z,10.72
2023-02-24T01:43:43.227Z,10.73
2023-02-24T01:44:43.218Z,10.72
2023-02-24T01:45:43.208Z,10.69
2023-02-24T01:46:43.231Z,10.69
2023-02-24T01:47:43.179Z,10.68
2023-02-24T01:48:43.189Z,10.69
2023-02-24T01:49:43.169Z,10.70
2023-02-24T01:50:43.158Z,10.72
2023-02-24T01:51:43.130Z,10.73
2023-02-24T01:52:43.113Z,10.73
2023-02-24T01:53:43.149Z,10.72
2023-02-24T01:54:43.154Z,10.73
2023-02-24T01:55:43.118Z,10.70
2023-02-24T01:56:43.085Z,10.70
2023-02-24T01:57:43.094Z,10.69
2023-02-24T01:58:43.082Z,10.66
2023-02-24T01:59:43.063Z,10.66
2023-02-24T02:00:43.052Z,10.65
2023-02-24T02:01:43.155Z,10.62
2023-02-24T02:02:43.196Z,10.62
2023-02-24T02:03:43.039Z,10.62
2023-02-24T02:04:42.992Z,10.62
2023-02-24T02:05:42.994Z,10.57
2023-02-24T02:06:42.985Z,10.55
2023-02-24T02:07:43.010Z,10.54
2023-02-24T02:08:42.956Z,10.54
2023-02-24T02:09:42.938Z,10.54
2023-02-24T02:10:42.934Z,10.51
2023-02-24T02:11:42.924Z,10.51
2023-02-24T02:12:42.936Z,10.51
2023-02-24T02:13:43.006Z,10.49
2023-02-24T02:14:42.909Z,10.49
2023-02-24T02:15:42.896Z,10.49
2023-02-24T02:16:42.875Z,10.47
2023-02-24T02:17:42.869Z,10.47
2023-02-24T02:18:42.865Z,10.47
2023-02-24T02:19:42.838Z,10.47
2023-02-24T02:20:42.845Z,10.49
2023-02-24T02:21:42.817Z,10.46
2023-02-24T02:22:42.814Z,10.47
2023-02-24T02:23:42.797Z,10.47
2023-02-24T02:24:42.799Z,10.47
2023-02-24T02:25:42.789Z,10.47
2023-02-24T02:26:42.768Z,10.49
2023-02-24T02:27:42.776Z,10.47
2023-02-24T02:28:42.737Z,10.47
2023-02-24T02:29:42.728Z,10.46
2023-02-24T02:30:42.764Z,10.44
2023-02-24T02:31:42.941Z,10.43
2023-02-24T02:32:42.791Z,10.43
2023-02-24T02:33:42.690Z,10.44
2023-02-24T02:34:42.689Z,10.42
2023-02-24T02:35:42.670Z,10.42
2023-02-24T02:36:42.659Z,10.43
2023-02-24T02:37:42.640Z,10.42
2023-02-24T02:38:42.640Z,10.39
2023-02-24T02:39:42.639Z,10.39
2023-02-24T02:40:42.629Z,10.39
2023-02-24T02:41:42.606Z,10.43
2023-02-24T02:42:42.609Z,10.44
2023-02-24T02:43:42.589Z,10.46
2023-02-24T02:44:42.594Z,10.46
2023-02-24T02:45:42.578Z,10.47
2023-02-24T02:46:42.560Z,10.44
2023-02-24T02:47:42.528Z,10.44
2023-02-24T02:48:42.530Z,10.46
2023-02-24T02:49:42.528Z,10.44
2023-02-24T02:50:42.640Z,10.44
2023-02-24T02:51:42.510Z,10.43
2023-02-24T02:52:42.507Z,10.44
2023-02-24T02:53:42.492Z,10.42
2023-02-24T02:54:42.458Z,10.44
2023-02-24T02:55:42.446Z,10.43
2023-02-24T02:56:42.436Z,10.42
2023-02-24T02:57:42.425Z,10.42
2023-02-24T02:58:42.437Z,10.42
2023-02-24T02:59:42.398Z,10.42
2023-02-24T03:00:42.465Z,10.39
2023-02-24T03:01:42.378Z,10.43
2023-02-24T03:02:42.368Z,10.42
2023-02-24T03:03:42.364Z,10.44
2023-02-24T03:04:42.405Z,10.46
2023-02-24T03:05:42.357Z,10.44
2023-02-24T03:06:42.333Z,10.47
2023-02-24T03:07:42.322Z,10.47
2023-02-24T03:08:42.308Z,10.47
2023-02-24T03:09:42.296Z,10.46
2023-02-24T03:10:42.289Z,10.46
2023-02-24T03:11:42.288Z,10.43
2023-02-24T03:12:42.278Z,10.43
2023-02-24T03:13:42.257Z,10.39
2023-02-24T03:14:42.240Z,10.43
2023-02-24T03:15:42.263Z,10.44
2023-02-24T03:16:42.237Z,10.46
2023-02-24T03:17:42.233Z,10.44
2023-02-24T03:18:42.202Z,10.44
2023-02-24T03:19:42.201Z,10.43
2023-02-24T03:20:42.188Z,10.44
2023-02-24T03:21:42.200Z,10.43
2023-02-24T03:22:42.161Z,10.44
2023-02-24T03:23:42.142Z,10.43
2023-02-24T03:24:42.157Z,10.47
2023-02-24T03:25:42.125Z,10.47
2023-02-24T03:26:42.121Z,10.46
2023-02-24T03:27:42.122Z,10.44
2023-02-24T03:28:42.093Z,10.44
2023-02-24T03:29:42.093Z,10.43
2023-02-24T03:30:42.110Z,10.44
2023-02-24T03:31:42.148Z,10.39
2023-02-24T03:32:42.115Z,10.35
2023-02-24T03:33:42.120Z,10.34
2023-02-24T03:34:42.033Z,10.35
2023-02-24T03:35:42.028Z,10.34
2023-02-24T03:36:42.014Z,10.32
2023-02-24T03:37:42.005Z,10.32
2023-02-24T03:38:41.985Z,10.28
2023-02-24T03:39:42.013Z,10.25
2023-02-24T03:40:41.969Z,10.24
2023-02-24T03:41:41.974Z,10.25
2023-02-24T03:42:41.950Z,10.25
2023-02-24T03:43:41.957Z,10.26
2023-02-24T03:44:41.928Z,10.29
2023-02-24T03:45:42.082Z,10.28
2023-02-24T03:46:41.906Z,10.31
2023-02-24T03:47:42.016Z,10.28
2023-02-24T03:48:41.895Z,10.28
2023-02-24T03:49:41.877Z,10.26
2023-02-24T03:50:41.886Z,10.26
2023-02-24T03:51:41.858Z,10.25
2023-02-24T03:52:41.837Z,10.25
2023-02-24T03:53:41.841Z,10.22
2023-02-24T03:54:41.816Z,10.22
2023-02-24T03:55:41.814Z,10.24
2023-02-24T03:56:41.816Z,10.25
2023-02-24T03:57:41.787Z,10.24
2023-02-24T03:58:41.780Z,10.25
2023-02-24T03:59:41.774Z,10.24
2023-02-24T04:00:41.754Z,10.25
2023-02-24T04:01:41.759Z,10.22
2023-02-24T04:02:41.759Z,10.25
2023-02-24T04:03:41.729Z,10.25
2023-02-24T04:04:41.793Z,10.22
2023-02-24T04:05:41.712Z,10.20
2023-02-24T04:06:41.719Z,10.22
2023-02-24T04:07:41.698Z,10.20
2023-02-24T04:08:41.667Z,10.22
2023-02-24T04:09:41.658Z,10.24
2023-02-24T04:10:41.670Z,10.24
2023-02-24T04:11:41.648Z,10.26
2023-02-24T04:12:41.715Z,10.25
2023-02-24T04:13:41.630Z,10.22
2023-02-24T04:14:41.598Z,10.20
2023-02-24T04:15:41.653Z,10.18
2023-02-24T04:16:41.579Z,10.17
2023-02-24T04:17:41.579Z,10.17
2023-02-24T04:18:41.769Z,10.17
2023-02-24T04:19:41.573Z,10.13
2023-02-24T04:20:41.560Z,10.06
2023-02-24T04:21:41.532Z,10.06
2023-02-24T04:22:41.540Z,10.04
2023-02-24T04:23:41.510Z,10.04
2023-02-24T04:24:41.497Z,10.04
2023-02-24T04:25:41.500Z,10.04
2023-02-24T04:26:41.471Z,10.04
2023-02-24T04:27:41.480Z,10.01
2023-02-24T04:28:41.456Z,10.04
2023-02-24T04:29:41.473Z,10.01
2023-02-24T04:30:41.554Z,9.99
2023-02-24T04:31:41.605Z,10.01
2023-02-24T04:32:41.474Z,10.01
2023-02-24T04:33:41.404Z,10.01
2023-02-24T04:34:41.413Z,9.99
2023-02-24T04:35:41.383Z,9.98
2023-02-24T04:36:41.372Z,9.95
2023-02-24T04:37:41.364Z,9.95
2023-02-24T04:38:41.366Z,9.91
2023-02-24T04:39:41.355Z,9.91
2023-02-24T04:40:41.325Z,9.89
2023-02-24T04:41:41.313Z,9.89
2023-02-24T04:42:41.309Z,9.91
2023-02-24T04:43:41.326Z,9.92
2023-02-24T04:44:41.314Z,9.93
2023-02-24T04:45:41.275Z,9.95
2023-02-24T04:46:41.338Z,9.98
2023-02-24T04:47:41.256Z,9.99
2023-02-24T04:48:41.257Z,9.99
2023-02-24T04:49:41.255Z,9.95
2023-02-24T04:50:42.352Z,9.95
2023-02-24T04:51:41.226Z,9.95
2023-02-24T04:52:41.197Z,9.93
2023-02-24T04:53:41.197Z,9.92
2023-02-24T04:54:41.174Z,9.92
2023-02-24T04:55:41.189Z,9.91
2023-02-24T04:56:41.166Z,9.92
2023-02-24T04:57:41.156Z,9.95
2023-02-24T04:58:41.157Z,9.95
2023-02-24T04:59:41.128Z,9.98
2023-02-24T05:00:41.130Z,9.98
2023-02-24T05:01:41.114Z,9.96
2023-02-24T05:02:41.110Z,9.93
2023-02-24T05:03:41.118Z,9.92
2023-02-24T05:04:41.168Z,9.91
2023-02-24T05:05:41.060Z,9.89
2023-02-24T05:06:41.053Z,9.88
2023-02-24T05:07:41.080Z,9.86
2023-02-24T05:08:41.032Z,9.85
2023-02-24T05:09:41.029Z,9.83
2023-02-24T05:10:41.012Z,9.85
2023-02-24T05:11:41.021Z,9.85
2023-02-24T05:12:40.992Z,9.83
2023-02-24T05:13:40.982Z,9.83
2023-02-24T05:14:40.983Z,9.81
2023-02-24T05:15:40.967Z,9.78
2023-02-24T05:16:41.066Z,9.78
2023-02-24T05:17:40.943Z,9.75
2023-02-24T05:18:40.943Z,9.73
2023-02-24T05:19:40.925Z,9.71
2023-02-24T05:20:40.905Z,9.68
2023-02-24T05:21:40.898Z,9.70
2023-02-24T05:22:40.896Z,9.70
2023-02-24T05:23:40.876Z,9.70
2023-02-24T05:24:40.867Z,9.70
2023-02-24T05:25:40.866Z,9.71
2023-02-24T05:26:40.848Z,9.71
2023-02-24T05:27:40.836Z,9.74
2023-02-24T05:28:41.028Z,9.74
2023-02-24T05:29:40.806Z,9.73
2023-02-24T05:30:40.870Z,9.71
2023-02-24T05:31:40.891Z,9.70
2023-02-24T05:32:40.845Z,9.68
2023-02-24T05:33:40.788Z,9.67
2023-02-24T05:34:40.760Z,9.65
2023-02-24T05:35:40.769Z,9.67
2023-02-24T05:36:40.828Z,9.67
2023-02-24T05:37:41.437Z,9.67
2023-02-24T05:38:40.731Z,9.67
2023-02-24T05:39:40.715Z,9.67
2023-02-24T05:40:40.698Z,9.67
2023-02-24T05:41:40.686Z,9.67
2023-02-24T05:42:40.667Z,9.68
2023-02-24T05:43:40.668Z,9.68
2023-02-24T05:44:40.648Z,9.70
2023-02-24T05:45:40.636Z,9.67
2023-02-24T05:46:40.702Z,9.67
2023-02-24T05:47:40.614Z,9.65
2023-02-24T05:48:40.606Z,9.63
2023-02-24T05:49:40.636Z,9.63
2023-02-24T05:50:40.588Z,9.65
2023-02-24T05:51:40.576Z,9.62
2023-02-24T05:52:40.562Z,9.62
2023-02-24T05:53:40.557Z,9.58
2023-02-24T05:54:40.558Z,9.58
2023-02-24T05:55:40.537Z,9.60
2023-02-24T05:56:40.514Z,9.63
2023-02-24T05:57:40.576Z,9.65
2023-02-24T05:58:40.502Z,9.70
2023-02-24T05:59:40.493Z,9.68
2023-02-24T06:00:40.476Z,9.65
2023-02-24T06:01:40.478Z,9.68
2023-02-24T06:02:40.488Z,9.65
2023-02-24T06:03:40.437Z,9.67
2023-02-24T06:04:40.455Z,9.62
2023-02-24T06:05:40.421Z,9.62
2023-02-24T06:06:40.409Z,9.63
2023-02-24T06:07:40.422Z,9.63
2023-02-24T06:08:40.388Z,9.63
2023-02-24T06:09:40.389Z,9.63
2023-02-24T06:10:40.376Z,9.63
2023-02-24T06:11:40.452Z,9.62
2023-02-24T06:12:40.351Z,9.63
2023-02-24T06:13:40.340Z,9.63
2023-02-24T06:14:40.338Z,9.60
2023-02-24T06:15:40.328Z,9.62
2023-02-24T06:16:40.379Z,9.62
2023-02-24T06:17:40.308Z,9.63
2023-02-24T06:18:40.279Z,9.65
2023-02-24T06:19:40.280Z,9.63
2023-02-24T06:20:40.287Z,9.62
2023-02-24T06:21:40.260Z,9.60
2023-02-24T06:22:40.240Z,9.58
2023-02-24T06:23:40.251Z,9.56
2023-02-24T06:24:40.221Z,9.56
2023-02-24T06:25:40.217Z,9.56
2023-02-24T06:26:40.199Z,9.56
2023-02-24T06:27:40.211Z,9.56
2023-02-24T06:28:40.174Z,9.56
2023-02-24T06:29:40.171Z,9.56
2023-02-24T06:30:40.201Z,9.52
2023-02-24T06:31:40.326Z,9.52
2023-02-24T06:32:40.359Z,9.50
2023-02-24T06:33:40.133Z,9.55
2023-02-24T06:34:40.117Z,9.55
2023-02-24T06:35:40.115Z,9.53
2023-02-24T06:36:40.101Z,9.52
2023-02-24T06:37:40.083Z,9.50
2023-02-24T06:38:40.087Z,9.52
2023-02-24T06:39:40.076Z,9.55
2023-02-24T06:40:40.046Z,9.55
2023-02-24T06:41:40.048Z,9.56
2023-02-24T06:42:40.056Z,9.55
2023-02-24T06:43:40.040Z,9.56
2023-02-24T06:44:40.030Z,9.53
2023-02-24T06:45:40.041Z,9.53
2023-02-24T06:46:39.989Z,9.52
2023-02-24T06:47:39.978Z,9.52
2023-02-24T06:48:39.967Z,9.53
2023-02-24T06:49:39.976Z,9.53
2023-02-24T06:50:41.982Z,9.53
2023-02-24T06:51:39.941Z,9.52
2023-02-24T06:52:39.927Z,9.49
2023-02-24T06:53:39.920Z,9.48
2023-02-24T06:54:39.919Z,9.48
2023-02-24T06:55:39.901Z,9.45
2023-02-24T06:56:39.881Z,9.49
2023-02-24T06:57:39.947Z,9.48
2023-02-24T06:58:39.868Z,9.44
2023-02-24T06:59:39.876Z,9.45
2023-02-24T07:00:39.888Z,9.44
2023-02-24T07:01:39.851Z,9.44
2023-02-24T07:02:39.834Z,9.45
2023-02-24T07:03:39.826Z,9.42
2023-02-24T07:04:39.874Z,9.44
2023-02-24T07:05:39.810Z,9.44
2023-02-24T07:06:39.771Z,9.45
2023-02-24T07:07:39.771Z,9.52
2023-02-24T07:08:39.810Z,9.53
2023-02-24T07:09:39.760Z,9.52
2023-02-24T07:10:39.731Z,9.49
2023-02-24T07:11:39.722Z,9.50
2023-02-24T07:12:39.730Z,9.49
2023-02-24T07:13:39.706Z,9.49
2023-02-24T07:14:39.708Z,9.48
2023-02-24T07:15:39.689Z,9.48
2023-02-24T07:16:39.688Z,9.45
2023-02-24T07:17:39.662Z,9.45
2023-02-24T07:18:39.644Z,9.48
2023-02-24T07:19:39.663Z,9.49
2023-02-24T07:20:39.621Z,9.49
2023-02-24T07:21:39.710Z,9.49
2023-02-24T07:22:39.604Z,9.49
2023-02-24T07:23:39.592Z,9.49
2023-02-24T07:24:39.659Z,9.49
2023-02-24T07:25:39.592Z,9.52
2023-02-24T07:26:39.564Z,9.52
2023-02-24T07:27:39.555Z,9.55
2023-02-24T07:28:39.533Z,9.56
2023-02-24T07:29:39.535Z,9.56
2023-02-24T07:30:39.614Z,9.58
2023-02-24T07:31:39.759Z,9.60
2023-02-24T07:32:39.552Z,9.60
2023-02-24T07:33:39.494Z,9.59
2023-02-24T07:34:39.479Z,9.59
2023-02-24T07:35:41.248Z,9.58
2023-02-24T07:36:39.454Z,9.58
2023-02-24T07:37:39.466Z,9.56
2023-02-24T07:38:39.433Z,9.55
2023-02-24T07:39:39.694Z,9.58
2023-02-24T07:40:39.403Z,9.55
2023-02-24T07:41:39.404Z,9.58
2023-02-24T07:42:39.384Z,9.59
2023-02-24T07:43:39.393Z,9.62
2023-02-24T07:44:39.387Z,9.62
2023-02-24T07:45:39.419Z,9.63
2023-02-24T07:46:39.344Z,9.67
2023-02-24T07:47:39.335Z,9.67
2023-02-24T07:48:39.335Z,9.67
2023-02-24T07:49:39.344Z,9.67
2023-02-24T07:50:39.304Z,9.68
2023-02-24T07:51:39.295Z,9.70
2023-02-24T07:52:39.282Z,9.73
2023-02-24T07:53:39.273Z,9.73
2023-02-24T07:54:39.550Z,9.71
2023-02-24T07:55:39.271Z,9.71
2023-02-24T07:56:39.245Z,9.71
2023-02-24T07:57:39.231Z,9.73
2023-02-24T07:58:39.224Z,9.74
2023-02-24T07:59:39.205Z,9.73
2023-02-24T08:00:39.254Z,9.74
2023-02-24T08:01:39.273Z,9.74
2023-02-24T08:02:39.205Z,9.74
2023-02-24T08:03:39.166Z,9.75
2023-02-24T08:04:39.186Z,9.77
2023-02-24T08:05:39.173Z,9.77
2023-02-24T08:06:39.142Z,9.77
2023-02-24T08:07:39.125Z,9.78
2023-02-24T08:08:39.120Z,9.78
2023-02-24T08:09:39.096Z,9.78
2023-02-24T08:10:39.111Z,9.80
2023-02-24T08:11:39.107Z,9.81
2023-02-24T08:12:39.081Z,9.83
2023-02-24T08:13:39.056Z,9.81
2023-02-24T08:14:39.056Z,9.85
2023-02-24T08:15:39.059Z,9.88
2023-02-24T08:16:39.029Z,9.91
2023-02-24T08:17:39.018Z,9.95
2023-02-24T08:18:39.005Z,9.98
2023-02-24T08:19:39.024Z,9.98
2023-02-24T08:20:38.978Z,10.02
2023-02-24T08:21:38.971Z,10.02
2023-02-24T08:22:38.967Z,10.02
2023-02-24T08:23:38.948Z,10.01
2023-02-24T08:24:38.947Z,10.04
2023-02-24T08:25:38.929Z,10.04
2023-02-24T08:26:38.947Z,10.06
2023-02-24T08:27:39.008Z,10.04
2023-02-24T08:28:38.909Z,10.06
2023-02-24T08:29:38.898Z,10.02
2023-02-24T08:30:39.253Z,10.06
2023-02-24T08:31:39.089Z,10.09
2023-02-24T08:32:39.037Z,10.13
2023-02-24T08:33:38.863Z,10.13
2023-02-24T08:34:38.840Z,10.18
2023-02-24T08:35:38.848Z,10.20
2023-02-24T08:36:38.811Z,10.16
2023-02-24T08:37:38.808Z,10.13
2023-02-24T08:38:38.791Z,10.11
2023-02-24T08:39:38.816Z,10.14
2023-02-24T08:40:38.808Z,10.17
2023-02-24T08:41:38.761Z,10.20
2023-02-24T08:42:38.770Z,10.20
2023-02-24T08:43:38.743Z,10.17
2023-02-24T08:44:40.256Z,10.16
2023-02-24T08:45:38.716Z,10.17
2023-02-24T08:46:38.776Z,10.22
2023-02-24T08:47:38.723Z,10.22
2023-02-24T08:48:38.770Z,10.26
2023-02-24T08:49:38.680Z,10.29
2023-02-24T08:50:38.681Z,10.31
2023-02-24T08:51:38.682Z,10.34
2023-02-24T08:52:38.648Z,10.36
2023-02-24T08:53:38.639Z,10.36
2023-02-24T08:54:38.632Z,10.38
2023-02-24T08:55:38.607Z,10.43
2023-02-24T08:56:38.628Z,10.46
2023-02-24T08:57:38.602Z,10.49
2023-02-24T08:58:38.590Z,10.54
2023-02-24T08:59:38.880Z,10.52
2023-02-24T09:00:38.655Z,10.54
2023-02-24T09:01:38.560Z,10.54
2023-02-24T09:02:38.549Z,10.58
2023-02-24T09:03:38.533Z,10.58
2023-02-24T09:04:38.572Z,10.60
2023-02-24T09:05:38.514Z,10.63
2023-02-24T09:06:38.501Z,10.65
2023-02-24T09:07:38.491Z,10.68
2023-02-24T09:08:38.564Z,10.68
2023-02-24T09:09:38.478Z,10.68
2023-02-24T09:10:39.906Z,10.66
2023-02-24T09:11:38.443Z,10.68
2023-02-24T09:12:38.459Z,10.69
2023-02-24T09:13:38.424Z,10.72
2023-02-24T09:14:38.415Z,10.72
2023-02-24T09:15:38.424Z,10.70
2023-02-24T09:16:38.428Z,10.70
2023-02-24T09:17:38.389Z,10.75
2023-02-24T09:18:38.460Z,10.76
2023-02-24T09:19:38.367Z,10.76
2023-02-24T09:20:38.373Z,10.76
2023-02-24T09:21:38.335Z,10.76
2023-02-24T09:22:38.345Z,10.75
2023-02-24T09:23:38.318Z,10.72
2023-02-24T09:24:38.324Z,10.70
2023-02-24T09:25:38.294Z,10.70
2023-02-24T09:26:38.297Z,10.72
2023-02-24T09:27:38.277Z,10.75
2023-02-24T09:28:38.357Z,10.76
2023-02-24T09:29:38.256Z,10.78
2023-02-24T09:30:38.449Z,10.80
2023-02-24T09:31:38.417Z,10.81
2023-02-24T09:32:38.350Z,10.81
2023-02-24T09:33:38.212Z,10.84
2023-02-24T09:34:38.223Z,10.84
2023-02-24T09:35:38.183Z,10.88
2023-02-24T09:36:38.200Z,10.91
2023-02-24T09:37:38.179Z,10.94
2023-02-24T09:38:38.158Z,10.95
2023-02-24T09:39:38.153Z,10.99
2023-02-24T09:40:38.136Z,11.02
2023-02-24T09:41:38.149Z,11.03
2023-02-24T09:42:38.117Z,11.06
2023-02-24T09:43:38.102Z,11.09
2023-02-24T09:44:38.103Z,11.12
2023-02-24T09:45:38.350Z,11.12
2023-02-24T09:46:38.147Z,11.12
2023-02-24T09:47:38.078Z,11.16
2023-02-24T09:48:38.049Z,11.20
2023-02-24T09:49:38.039Z,11.24
2023-02-24T09:50:59.725Z,11.24
2023-02-24T09:51:39.009Z,11.26
2023-02-24T09:52:38.020Z,11.28
2023-02-24T09:53:40.749Z,11.31
2023-02-24T09:54:37.991Z,11.31
2023-02-24T09:55:37.989Z,11.28
2023-02-24T09:56:37.973Z,11.33
2023-02-24T09:57:37.998Z,11.31
2023-02-24T09:58:43.795Z,11.36
2023-02-24T09:59:38.930Z,11.39
2023-02-24T10:00:37.954Z,11.42
2023-02-24T10:01:37.949Z,11.49
2023-02-24T10:02:38.000Z,11.56
2023-02-24T10:03:37.902Z,11.59
2023-02-24T10:04:37.880Z,11.63
2023-02-24T10:05:37.872Z,11.64
2023-02-24T10:06:37.861Z,11.64
2023-02-24T10:07:37.863Z,11.63
2023-02-24T10:08:37.844Z,11.63
2023-02-24T10:09:37.825Z,11.63
2023-02-24T10:10:37.843Z,11.60
2023-02-24T10:11:37.802Z,11.60
2023-02-24T10:12:37.813Z,11.62
2023-02-24T10:13:37.782Z,11.63
2023-02-24T10:14:43.496Z,11.64
2023-02-24T10:15:38.778Z,11.67
2023-02-24T10:16:37.814Z,11.69
2023-02-24T10:17:37.768Z,11.69
2023-02-24T10:18:37.725Z,11.66
2023-02-24T10:19:37.715Z,11.60
2023-02-24T10:20:37.761Z,11.59
2023-02-24T10:21:37.705Z,11.57
2023-02-24T10:22:37.696Z,11.62
2023-02-24T10:23:37.673Z,11.63
2023-02-24T10:24:37.666Z,11.63
2023-02-24T10:25:37.675Z,11.64
2023-02-24T10:26:39.212Z,11.60
2023-02-24T10:27:37.639Z,11.60
2023-02-24T10:28:37.636Z,11.62
2023-02-24T10:29:37.645Z,11.64
2023-02-24T10:30:37.678Z,11.67
2023-02-24T10:31:37.763Z,11.69
2023-02-24T10:32:37.662Z,11.69
2023-02-24T10:33:37.585Z,11.62
2023-02-24T10:34:37.568Z,11.59
2023-02-24T10:35:37.553Z,11.53
2023-02-24T10:36:37.540Z,11.49
2023-02-24T10:37:37.528Z,11.49
2023-02-24T10:38:37.540Z,11.48
2023-02-24T10:39:37.512Z,11.44
2023-02-24T10:40:37.500Z,11.42
2023-02-24T10:41:37.542Z,11.41
2023-02-24T10:42:37.480Z,11.38
2023-02-24T10:43:37.534Z,11.31
2023-02-24T10:44:37.459Z,11.28
2023-02-24T10:45:37.460Z,11.24
2023-02-24T10:46:42.441Z,11.27
2023-02-24T10:47:38.425Z,11.28
2023-02-24T10:48:42.017Z,11.30
2023-02-24T10:49:38.425Z,11.35
2023-02-24T10:50:39.346Z,11.36
2023-02-24T10:51:38.383Z,11.33
2023-02-24T10:52:37.404Z,11.30
2023-02-24T10:53:37.362Z,11.30
2023-02-24T10:54:37.354Z,11.27
2023-02-24T10:55:37.334Z,11.27
2023-02-24T10:56:37.351Z,11.26
2023-02-24T10:57:42.629Z,11.26
2023-02-24T10:58:38.320Z,11.28
2023-02-24T10:59:37.375Z,11.30
2023-02-24T11:00:37.293Z,11.35
2023-02-24T11:01:37.311Z,11.35
2023-02-24T11:02:37.339Z,11.31
2023-02-24T11:03:37.270Z,11.31
2023-02-24T11:04:37.263Z,11.28
2023-02-24T11:05:37.242Z,11.26
2023-02-24T11:06:37.221Z,11.27
2023-02-24T11:07:37.201Z,11.24
2023-02-24T11:08:37.201Z,11.26
2023-02-24T11:09:37.182Z,11.27
2023-02-24T11:10:37.201Z,11.21
2023-02-24T11:11:37.161Z,11.23
2023-02-24T11:12:37.160Z,11.21
2023-02-24T11:13:37.155Z,11.21
2023-02-24T11:14:37.131Z,11.26
2023-02-24T11:15:37.168Z,11.27
2023-02-24T11:16:37.102Z,11.27
2023-02-24T11:17:37.130Z,11.24
2023-02-24T11:18:37.102Z,11.26
2023-02-24T11:19:37.077Z,11.27
2023-02-24T11:20:48.444Z,11.28
2023-02-24T11:21:38.065Z,11.30
2023-02-24T11:22:37.049Z,11.31
2023-02-24T11:23:37.034Z,11.31
2023-02-24T11:24:37.053Z,11.24
2023-02-24T11:25:37.019Z,11.23
2023-02-24T11:26:37.024Z,11.23
2023-02-24T11:27:36.991Z,11.26
2023-02-24T11:28:36.982Z,11.23
2023-02-24T11:29:36.963Z,11.21
2023-02-24T11:30:37.003Z,11.20
2023-02-24T11:31:37.033Z,11.23
2023-02-24T11:32:37.094Z,11.26
2023-02-24T11:33:36.913Z,11.27
2023-02-24T11:34:36.919Z,11.31
2023-02-24T11:35:36.924Z,11.35
2023-02-24T11:36:36.906Z,11.35
2023-02-24T11:37:36.885Z,11.33
2023-02-24T11:38:36.865Z,11.27
2023-02-24T11:39:36.856Z,11.27
2023-02-24T11:40:36.856Z,11.27
2023-02-24T11:41:36.867Z,11.28
2023-02-24T11:42:36.846Z,11.30
2023-02-24T11:43:36.817Z,11.31
2023-02-24T11:44:36.812Z,11.33
2023-02-24T11:45:36.808Z,11.35
2023-02-24T11:46:36.838Z,11.36
2023-02-24T11:47:36.894Z,11.31
2023-02-24T11:48:36.760Z,11.31
2023-02-24T11:49:36.748Z,11.35
2023-02-24T11:50:36.763Z,11.33
2023-02-24T11:51:36.748Z,11.36
2023-02-24T11:52:36.721Z,11.33
2023-02-24T11:53:36.732Z,11.35
2023-02-24T11:54:36.702Z,11.31
2023-02-24T11:55:36.704Z,11.33
2023-02-24T11:56:36.699Z,11.33
2023-02-24T11:57:36.663Z,11.35
2023-02-24T11:58:36.692Z,11.31
2023-02-24T11:59:36.692Z,11.30
2023-02-24T12:00:36.646Z,11.33
2023-02-24T12:01:36.638Z,11.36
2023-02-24T12:02:36.649Z,11.41
2023-02-24T12:03:36.624Z,11.42
2023-02-24T12:04:36.602Z,11.48
2023-02-24T12:05:36.640Z,11.48
2023-02-24T12:06:36.572Z,11.51
2023-02-24T12:07:36.562Z,11.53
2023-02-24T12:08:36.551Z,11.51
2023-02-24T12:09:36.553Z,11.51
2023-02-24T12:10:36.531Z,11.51
2023-02-24T12:11:36.523Z,11.49
2023-02-24T12:12:36.510Z,11.53
2023-02-24T12:13:36.516Z,11.54
2023-02-24T12:14:36.522Z,11.54
2023-02-24T12:15:36.499Z,11.56
2023-02-24T12:16:36.553Z,11.60
2023-02-24T12:17:36.471Z,11.64
2023-02-24T12:18:36.452Z,11.67
2023-02-24T12:19:36.437Z,11.72
2023-02-24T12:20:36.435Z,11.77
2023-02-24T12:21:36.418Z,11.84
2023-02-24T12:22:36.402Z,11.93
2023-02-24T12:23:36.409Z,11.96
2023-02-24T12:24:36.395Z,12.01
2023-02-24T12:25:36.378Z,12.21
2023-02-24T12:26:37.066Z,12.29
2023-02-24T12:27:36.372Z,12.31
2023-02-24T12:28:36.336Z,12.36
2023-02-24T12:29:36.342Z,12.43
2023-02-24T12:30:38.782Z,12.48
2023-02-24T12:31:36.451Z,12.51
2023-02-24T12:32:36.457Z,12.54
2023-02-24T12:33:36.328Z,12.56
2023-02-24T12:34:36.276Z,12.56
2023-02-24T12:35:36.276Z,12.62
2023-02-24T12:36:36.245Z,12.61
2023-02-24T12:37:36.262Z,12.58
2023-02-24T12:38:36.235Z,12.55
2023-02-24T12:39:36.213Z,12.54
2023-02-24T12:40:36.203Z,12.56
2023-02-24T12:41:37.392Z,12.58
2023-02-24T12:42:36.187Z,12.66
2023-02-24T12:43:36.174Z,12.71
2023-02-24T12:44:36.166Z,12.88
2023-02-24T12:45:36.499Z,13.03
2023-02-24T12:46:36.134Z,13.24
2023-02-24T12:47:36.168Z,13.39
2023-02-24T12:48:36.117Z,13.55
2023-02-24T12:49:36.117Z,13.73
2023-02-24T12:50:36.099Z,14.05
2023-02-24T12:51:36.096Z,14.17
2023-02-24T12:52:36.075Z,14.21
2023-02-24T12:53:36.069Z,14.21
2023-02-24T12:54:36.103Z,14.06
2023-02-24T12:55:36.046Z,14.01
2023-02-24T12:56:36.033Z,13.98
2023-02-24T12:57:36.025Z,13.96
2023-02-24T12:58:36.062Z,13.96
2023-02-24T12:59:36.003Z,13.98
2023-02-24T13:00:36.005Z,14.04